createdAt,value
2023-02-03T00:01:15.059Z,9.40
2023-02-03T00:03:52.133Z,9.70
2023-02-03T00:06:29.598Z,9.80
2023-02-03T00:09:07.193Z,12.70
2023-02-03T00:11:43.640Z,14.10
2023-02-03T00:14:19.554Z,13.50
2023-02-03T00:16:56.254Z,11.30
2023-02-03T00:19:35.771Z,9.80
2023-02-03T00:22:12.132Z,10.10
2023-02-03T00:24:49.521Z,9.50
2023-02-03T00:27:27.111Z,10.10
2023-02-03T00:30:02.930Z,8.70
2023-02-03T00:32:39.242Z,9.90
2023-02-03T00:35:17.303Z,11.30
2023-02-03T00:37:58.522Z,11.80
2023-02-03T00:40:35.491Z,10.60
2023-02-03T00:43:12.076Z,12.20
2023-02-03T00:45:48.260Z,12.20
2023-02-03T00:48:25.050Z,14.60
2023-02-03T00:51:01.591Z,12.00
2023-02-03T00:53:37.549Z,14.70
2023-02-03T00:56:14.947Z,15.50
2023-02-03T00:58:50.789Z,15.20
2023-02-03T01:01:26.829Z,12.20
2023-02-03T01:04:04.753Z,14.90
2023-02-03T01:06:43.585Z,16.20
2023-02-03T01:09:19.596Z,16.90
2023-02-03T01:11:56.063Z,16.50
2023-02-03T01:14:32.663Z,15.50
2023-02-03T01:17:08.824Z,14.90
2023-02-03T01:19:44.975Z,14.90
2023-02-03T01:22:22.011Z,14.20
2023-02-03T01:24:59.076Z,13.60
2023-02-03T01:27:36.861Z,13.90
2023-02-03T01:30:20.070Z,12.70
2023-02-03T01:32:56.500Z,13.00
2023-02-03T01:35:32.444Z,14.00
2023-02-03T01:38:09.083Z,14.30
2023-02-03T01:40:51.953Z,14.00
2023-02-03T01:43:40.391Z,14.30
2023-02-03T01:46:37.356Z,13.70
2023-02-03T01:49:20.741Z,14.10
2023-02-03T01:51:58.569Z,14.10
2023-02-03T01:54:40.896Z,16.70
2023-02-03T01:57:23.146Z,14.10
2023-02-03T02:00:05.515Z,14.50
2023-02-03T02:02:52.578Z,15.50
2023-02-03T02:05:40.676Z,19.60
2023-02-03T02:08:18.521Z,20.70
2023-02-03T02:10:55.765Z,18.30
2023-02-03T02:13:35.435Z,17.90
2023-02-03T02:16:22.251Z,17.90
2023-02-03T02:19:43.934Z,19.10
2023-02-03T02:22:33.214Z,18.20
2023-02-03T02:26:03.918Z,20.60
2023-02-03T02:29:38.910Z,19.00
2023-02-03T02:32:26.239Z,17.60
2023-02-03T02:35:19.011Z,20.70
2023-02-03T02:38:05.955Z,19.50
2023-02-03T02:40:53.768Z,20.10
2023-02-03T02:43:39.161Z,19.90
2023-02-03T02:46:21.611Z,19.50
2023-02-03T02:49:04.664Z,20.60
2023-02-03T02:51:42.156Z,20.20
2023-02-03T02:54:24.616Z,19.70
2023-02-03T02:57:06.184Z,24.80
2023-02-03T02:59:42.738Z,24.20
2023-02-03T03:02:19.767Z,21.50
2023-02-03T03:04:57.626Z,19.10
2023-02-03T03:07:38.234Z,21.40
2023-02-03T03:10:25.145Z,20.40
2023-02-03T03:13:06.497Z,19.10
2023-02-03T03:15:47.052Z,19.50
2023-02-03T03:18:31.363Z,18.90
2023-02-03T03:21:10.965Z,20.70
2023-02-03T03:23:53.735Z,22.00
2023-02-03T03:26:38.755Z,24.50
2023-02-03T03:29:24.374Z,23.20
2023-02-03T03:32:02.374Z,28.20
2023-02-03T03:34:40.627Z,29.30
2023-02-03T03:37:26.899Z,28.50
2023-02-03T03:40:10.766Z,27.10
2023-02-03T03:42:52.778Z,27.20
2023-02-03T03:45:41.277Z,27.60
2023-02-03T03:48:24.728Z,26.00
2023-02-03T03:51:09.053Z,24.50
2023-02-03T03:53:50.335Z,25.00
2023-02-03T03:56:34.638Z,26.60
2023-02-03T03:59:15.164Z,23.10
2023-02-03T04:01:51.618Z,19.90
2023-02-03T04:04:29.574Z,23.60
2023-02-03T04:07:05.802Z,22.10
2023-02-03T04:09:43.492Z,22.80
2023-02-03T04:12:29.070Z,21.00
2023-02-03T04:15:06.833Z,25.20
2023-02-03T04:17:43.547Z,32.50
2023-02-03T04:20:22.693Z,36.30
2023-02-03T04:22:59.904Z,34.10
2023-02-03T04:25:36.182Z,32.30
2023-02-03T04:28:12.647Z,31.90
2023-02-03T04:30:49.703Z,33.00
2023-02-03T04:33:26.089Z,28.60
2023-02-03T04:36:02.428Z,28.80
2023-02-03T04:38:38.681Z,29.20
2023-02-03T04:41:15.560Z,28.20
2023-02-03T04:43:53.011Z,27.80
2023-02-03T04:46:29.664Z,29.50
2023-02-03T04:49:05.941Z,33.80
2023-02-03T04:51:43.431Z,33.10
2023-02-03T04:54:20.073Z,36.90
2023-02-03T04:56:57.399Z,38.00
2023-02-03T04:59:34.467Z,37.00
2023-02-03T05:02:12.167Z,34.50
2023-02-03T05:04:49.233Z,33.40
2023-02-03T05:07:25.339Z,33.50
2023-02-03T05:10:02.258Z,31.70
2023-02-03T05:12:39.016Z,30.80
2023-02-03T05:15:19.047Z,29.60
2023-02-03T05:17:57.435Z,31.60
2023-02-03T05:20:34.393Z,30.30
2023-02-03T05:23:11.073Z,30.90
2023-02-03T05:25:48.379Z,32.50
2023-02-03T05:28:24.354Z,31.10
2023-02-03T05:31:02.441Z,29.10
2023-02-03T05:33:37.963Z,26.60
2023-02-03T05:36:19.063Z,27.50
2023-02-03T05:38:55.685Z,28.80
2023-02-03T05:41:49.400Z,26.80
2023-02-03T05:44:28.139Z,29.30
2023-02-03T05:47:05.873Z,30.50
2023-02-03T05:49:43.622Z,26.70
2023-02-03T05:52:20.079Z,24.40
2023-02-03T05:54:56.740Z,25.20
2023-02-03T05:57:34.093Z,30.80
2023-02-03T06:00:17.802Z,24.20
2023-02-03T06:03:00.807Z,33.00
2023-02-03T06:05:41.524Z,36.90
2023-02-03T06:08:18.942Z,31.50
2023-02-03T06:10:55.152Z,30.60
2023-02-03T06:13:31.901Z,34.80
2023-02-03T06:16:09.565Z,32.40
2023-02-03T06:18:46.434Z,22.80
2023-02-03T06:21:24.324Z,27.60
2023-02-03T06:24:00.744Z,32.20
2023-02-03T06:26:36.937Z,35.80
2023-02-03T06:29:13.460Z,37.90
2023-02-03T06:31:50.960Z,38.60
2023-02-03T06:34:28.244Z,36.10
2023-02-03T06:37:04.921Z,37.80
2023-02-03T06:39:42.514Z,37.90
2023-02-03T06:42:19.289Z,35.00
2023-02-03T06:44:56.348Z,33.20
2023-02-03T06:47:33.089Z,29.90
2023-02-03T06:50:10.947Z,35.60
2023-02-03T06:52:48.588Z,35.60
2023-02-03T06:55:25.357Z,35.80
2023-02-03T06:58:01.560Z,35.60
2023-02-03T07:00:37.767Z,33.00
2023-02-03T07:03:14.148Z,35.50
2023-02-03T07:05:50.485Z,33.70
2023-02-03T07:08:27.429Z,34.30
2023-02-03T07:11:03.683Z,34.20
2023-02-03T07:13:41.492Z,34.00
2023-02-03T07:16:18.472Z,35.90
2023-02-03T07:18:56.155Z,37.70
2023-02-03T07:21:32.770Z,35.80
2023-02-03T07:24:10.925Z,34.50
2023-02-03T07:26:47.344Z,35.00
2023-02-03T07:29:24.115Z,34.40
2023-02-03T07:32:03.087Z,33.20
2023-02-03T07:34:39.990Z,34.10
2023-02-03T07:37:17.245Z,33.70
2023-02-03T07:39:55.145Z,31.80
2023-02-03T07:42:32.748Z,33.80
2023-02-03T07:45:13.112Z,31.30
2023-02-03T07:47:50.886Z,32.30
2023-02-03T07:50:28.342Z,39.80
2023-02-03T07:53:04.721Z,38.50
2023-02-03T07:55:42.851Z,38.00
2023-02-03T07:58:20.068Z,36.90
2023-02-03T08:00:57.295Z,38.10
2023-02-03T08:03:33.750Z,35.20
2023-02-03T08:06:11.859Z,36.10
2023-02-03T08:08:48.413Z,35.10
2023-02-03T08:11:26.226Z,32.50
2023-02-03T08:14:03.720Z,34.30
2023-02-03T08:16:41.008Z,33.40
2023-02-03T08:19:18.093Z,28.10
2023-02-03T08:21:54.503Z,29.70
2023-02-03T08:24:31.108Z,42.20
2023-02-03T08:27:08.581Z,44.60
2023-02-03T08:29:46.177Z,40.80
2023-02-03T08:32:25.891Z,39.40
2023-02-03T08:35:02.586Z,36.30
2023-02-03T08:37:39.484Z,35.60
2023-02-03T08:40:19.113Z,38.00
2023-02-03T08:42:54.986Z,38.90
2023-02-03T08:45:32.558Z,36.80
2023-02-03T08:48:09.631Z,38.80
2023-02-03T08:50:53.206Z,40.00
2023-02-03T08:53:29.881Z,35.10
2023-02-03T08:56:10.571Z,48.80
2023-02-03T08:58:47.876Z,47.90
2023-02-03T09:01:25.389Z,47.30
2023-02-03T09:04:04.413Z,45.20
2023-02-03T09:06:40.355Z,43.90
2023-02-03T09:09:18.235Z,42.30
2023-02-03T09:12:00.947Z,41.60
2023-02-03T09:14:39.016Z,41.80
2023-02-03T09:17:15.269Z,40.00
2023-02-03T09:19:51.884Z,38.50
2023-02-03T09:22:29.265Z,41.20
2023-02-03T09:25:05.303Z,35.30
2023-02-03T09:27:42.814Z,35.70
2023-02-03T09:30:24.801Z,40.90
2023-02-03T09:33:01.913Z,50.20
2023-02-03T09:35:38.575Z,49.70
2023-02-03T09:38:15.909Z,48.70
2023-02-03T09:41:10.624Z,46.50
2023-02-03T09:43:55.335Z,46.90
2023-02-03T09:46:39.012Z,42.80
2023-02-03T09:49:27.157Z,46.20
2023-02-03T09:52:12.577Z,45.50
2023-02-03T09:54:56.188Z,42.40
2023-02-03T09:57:35.024Z,42.80
2023-02-03T10:00:30.162Z,42.40
2023-02-03T10:03:17.990Z,43.40
2023-02-03T10:06:23.243Z,41.90
2023-02-03T10:09:29.444Z,56.60
2023-02-03T10:12:40.031Z,57.10
2023-02-03T10:16:06.917Z,55.50
2023-02-03T10:18:52.915Z,50.10
2023-02-03T10:21:41.935Z,53.40
2023-02-03T10:24:28.096Z,51.60
2023-02-03T10:27:04.597Z,46.20
2023-02-03T10:29:47.133Z,52.10
2023-02-03T10:32:24.152Z,55.00
2023-02-03T10:35:00.388Z,54.20
2023-02-03T10:37:41.936Z,41.60
2023-02-03T10:40:23.552Z,45.50
2023-02-03T10:43:18.114Z,46.40
2023-02-03T10:45:54.714Z,54.70
2023-02-03T10:48:32.714Z,60.60
2023-02-03T10:51:14.751Z,59.40
2023-02-03T10:53:53.744Z,53.60
2023-02-03T10:56:35.284Z,54.10
2023-02-03T10:59:29.930Z,58.20
2023-02-03T11:02:14.570Z,56.50
2023-02-03T11:04:51.170Z,57.50
2023-02-03T11:07:35.695Z,56.10
2023-02-03T11:10:47.151Z,56.40
2023-02-03T11:13:28.507Z,56.60
2023-02-03T11:16:08.389Z,51.10
2023-02-03T11:18:57.887Z,55.50
2023-02-03T11:21:44.912Z,57.70
2023-02-03T11:24:27.029Z,57.30
2023-02-03T11:27:08.737Z,57.10
2023-02-03T11:29:50.431Z,56.00
2023-02-03T11:32:36.076Z,55.30
2023-02-03T11:35:24.338Z,60.90
2023-02-03T11:38:03.576Z,57.50
2023-02-03T11:40:41.809Z,59.20
2023-02-03T11:43:24.843Z,57.20
2023-02-03T11:46:08.092Z,59.60
2023-02-03T11:48:59.406Z,55.10
2023-02-03T11:51:48.519Z,56.80
2023-02-03T11:54:42.998Z,58.20
2023-02-03T11:57:41.267Z,57.30
2023-02-03T12:00:34.094Z,53.00
2023-02-03T12:04:16.081Z,54.50
2023-02-03T12:07:22.059Z,55.40
2023-02-03T12:10:11.505Z,55.30
2023-02-03T12:13:07.823Z,60.00
2023-02-03T12:16:18.336Z,57.00
2023-02-03T12:19:13.905Z,52.50
2023-02-03T12:21:59.344Z,52.30
2023-02-03T12:24:55.219Z,53.70
2023-02-03T12:27:50.142Z,56.20
2023-02-03T12:30:31.202Z,50.20
2023-02-03T12:33:23.657Z,50.00
2023-02-03T12:36:08.289Z,52.60
2023-02-03T12:38:53.009Z,60.60
2023-02-03T12:41:36.616Z,57.70
2023-02-03T12:44:23.085Z,62.10
2023-02-03T12:47:10.648Z,63.00
2023-02-03T12:49:53.730Z,56.60
2023-02-03T12:52:38.813Z,57.90
2023-02-03T12:55:30.959Z,61.10
2023-02-03T12:58:14.157Z,60.80
2023-02-03T13:00:59.870Z,58.50
2023-02-03T13:03:43.942Z,61.20
2023-02-03T13:06:29.556Z,59.40
2023-02-03T13:09:25.093Z,61.60
2023-02-03T13:12:11.414Z,56.70
2023-02-03T13:14:53.377Z,61.20
2023-02-03T13:17:34.420Z,56.90
2023-02-03T13:20:21.738Z,58.10
2023-02-03T13:22:57.557Z,62.20
2023-02-03T13:25:51.902Z,61.30
2023-02-03T13:28:51.358Z,62.60
2023-02-03T13:31:50.430Z,54.30
2023-02-03T13:35:08.130Z,52.30
2023-02-03T13:38:11.619Z,57.90
2023-02-03T13:41:02.322Z,57.00
2023-02-03T13:43:43.959Z,66.50
2023-02-03T13:46:32.059Z,65.40
2023-02-03T13:49:12.964Z,62.00
2023-02-03T13:51:53.567Z,64.60
2023-02-03T13:54:38.909Z,64.80
2023-02-03T13:57:34.706Z,65.00
2023-02-03T14:00:53.071Z,64.00
2023-02-03T14:03:49.532Z,61.90
2023-02-03T14:07:02.307Z,52.20
2023-02-03T14:10:08.757Z,56.60
2023-02-03T14:13:02.557Z,47.60
2023-02-03T14:15:40.021Z,50.50
2023-02-03T14:18:48.490Z,53.70
2023-02-03T14:21:27.653Z,55.10
2023-02-03T14:24:12.989Z,49.80
2023-02-03T14:26:52.746Z,54.40
2023-02-03T14:29:44.655Z,56.00
2023-02-03T14:32:21.992Z,48.90
2023-02-03T14:34:59.445Z,53.00
2023-02-03T14:37:38.298Z,65.80
2023-02-03T14:40:45.141Z,62.50
2023-02-03T14:43:46.262Z,60.90
2023-02-03T14:47:15.423Z,67.00
2023-02-03T14:50:24.700Z,64.40
2023-02-03T14:53:30.079Z,54.40
2023-02-03T14:56:25.172Z,59.50
2023-02-03T14:59:12.595Z,59.90
2023-02-03T15:02:21.550Z,51.60
2023-02-03T15:05:39.265Z,57.70
2023-02-03T15:08:53.315Z,52.60
2023-02-03T15:11:46.173Z,53.90
2023-02-03T15:14:32.997Z,53.60
2023-02-03T15:17:25.442Z,66.50
2023-02-03T15:20:02.530Z,70.30
2023-02-03T15:22:44.836Z,69.50
2023-02-03T15:25:28.748Z,82.00
2023-02-03T15:28:24.578Z,73.40
2023-02-03T15:31:09.412Z,65.30
2023-02-03T15:33:47.563Z,66.70
2023-02-03T15:36:29.002Z,63.10
2023-02-03T15:39:25.990Z,54.30
2023-02-03T15:42:07.199Z,59.60
2023-02-03T15:44:56.135Z,54.60
2023-02-03T15:47:42.085Z,61.10
2023-02-03T15:50:36.652Z,68.30
2023-02-03T15:53:26.220Z,71.10
2023-02-03T15:56:07.318Z,67.70
2023-02-03T15:58:52.846Z,67.30
2023-02-03T16:01:30.707Z,65.00
2023-02-03T16:04:14.821Z,62.40
2023-02-03T16:06:55.801Z,65.50
2023-02-03T16:09:42.310Z,67.70
2023-02-03T16:12:28.298Z,64.50
2023-02-03T16:15:07.013Z,62.20
2023-02-03T16:17:44.034Z,59.00
2023-02-03T16:20:33.546Z,60.80
2023-02-03T16:23:23.851Z,68.20
2023-02-03T16:26:36.453Z,69.60
2023-02-03T16:29:38.487Z,67.20
2023-02-03T16:32:43.588Z,67.20
2023-02-03T16:35:37.191Z,65.60
2023-02-03T16:38:39.400Z,67.70
2023-02-03T16:41:39.376Z,63.00
2023-02-03T16:44:34.310Z,67.10
2023-02-03T16:47:42.673Z,65.00
2023-02-03T16:50:42.357Z,68.30
2023-02-03T16:53:22.585Z,65.40
2023-02-03T16:56:01.286Z,51.60
2023-02-03T16:58:37.534Z,60.10
2023-02-03T17:01:15.833Z,66.00
2023-02-03T17:03:53.444Z,62.30
2023-02-03T17:06:29.968Z,61.70
2023-02-03T17:09:07.497Z,62.80
2023-02-03T17:11:44.710Z,60.60
2023-02-03T17:14:20.568Z,62.50
2023-02-03T17:16:57.359Z,68.80
2023-02-03T17:19:33.812Z,68.90
2023-02-03T17:22:10.595Z,69.00
2023-02-03T17:24:48.215Z,65.80
2023-02-03T17:27:25.137Z,65.80
2023-02-03T17:30:01.786Z,65.60
2023-02-03T17:32:38.687Z,65.90
2023-02-03T17:35:16.741Z,63.80
2023-02-03T17:37:53.389Z,64.20
2023-02-03T17:55:01.953Z,63.80
2023-02-03T17:57:41.749Z,63.60
2023-02-03T18:00:25.392Z,65.00
2023-02-03T18:03:02.596Z,65.00
2023-02-03T18:05:39.832Z,65.90
2023-02-03T18:08:20.303Z,61.50
2023-02-03T18:10:57.360Z,63.10
2023-02-03T18:13:34.503Z,71.70
2023-02-03T18:16:13.445Z,72.20
2023-02-03T18:18:49.249Z,67.10
2023-02-03T18:21:30.110Z,67.60
2023-02-03T18:24:07.242Z,62.60
2023-02-03T18:26:51.895Z,61.10
2023-02-03T18:29:29.034Z,65.60
2023-02-03T18:32:05.533Z,56.00
2023-02-03T18:34:44.178Z,64.30
2023-02-03T18:37:20.463Z,61.70
2023-02-03T18:39:57.828Z,71.40
2023-02-03T18:42:34.364Z,69.30
2023-02-03T18:45:14.025Z,66.20
2023-02-03T18:47:50.639Z,68.10
2023-02-03T18:50:26.955Z,65.90
2023-02-03T18:53:05.778Z,61.90
2023-02-03T18:55:45.544Z,64.50
2023-02-03T18:58:22.374Z,61.70
2023-02-03T19:00:59.203Z,64.30
2023-02-03T19:03:36.180Z,66.90
2023-02-03T19:06:18.774Z,67.20
2023-02-03T19:08:55.010Z,68.10
2023-02-03T19:11:35.162Z,66.90
2023-02-03T19:14:11.131Z,62.10
2023-02-03T19:16:50.809Z,63.40
2023-02-03T19:19:28.761Z,60.80
2023-02-03T19:22:05.642Z,62.50
2023-02-03T19:24:42.011Z,50.20
2023-02-03T19:27:18.817Z,54.30
2023-02-03T19:29:55.889Z,67.80
2023-02-03T19:32:33.215Z,70.40
2023-02-03T19:35:12.824Z,69.30
2023-02-03T19:37:50.169Z,62.60
2023-02-03T19:40:27.842Z,61.40
2023-02-03T19:43:05.054Z,61.90
2023-02-03T19:45:41.865Z,63.10
2023-02-03T19:48:19.121Z,60.80
2023-02-03T19:50:56.855Z,58.10
2023-02-03T19:53:33.876Z,55.10
2023-02-03T19:56:12.913Z,64.30
2023-02-03T19:58:52.731Z,63.70
2023-02-03T20:01:29.750Z,60.70
2023-02-03T20:04:07.573Z,64.40
2023-02-03T20:06:44.782Z,61.90
2023-02-03T20:09:21.264Z,61.00
2023-02-03T20:11:58.319Z,56.20
2023-02-03T20:14:35.108Z,58.40
2023-02-03T20:17:12.237Z,57.40
2023-02-03T20:19:49.089Z,55.40
2023-02-03T20:22:26.092Z,52.50
2023-02-03T20:25:03.264Z,49.70
2023-02-03T20:27:40.091Z,57.50
2023-02-03T20:30:20.844Z,66.30
2023-02-03T20:32:58.180Z,62.90
2023-02-03T20:35:35.192Z,63.00
2023-02-03T20:38:12.369Z,71.50
2023-02-03T20:40:49.508Z,64.30
2023-02-03T20:43:28.058Z,62.40
2023-02-03T20:46:04.996Z,64.10
2023-02-03T20:48:41.491Z,69.30
2023-02-03T20:51:21.339Z,66.80
2023-02-03T20:53:58.792Z,65.00
2023-02-03T20:56:37.096Z,60.40
2023-02-03T20:59:19.270Z,61.40
2023-02-03T21:01:55.873Z,58.10
2023-02-03T21:04:50.446Z,57.50
2023-02-03T21:07:27.202Z,58.50
2023-02-03T21:10:22.336Z,59.70
2023-02-03T21:12:59.600Z,59.50
2023-02-03T21:15:37.058Z,56.70
2023-02-03T21:18:36.153Z,55.20
2023-02-03T21:21:25.134Z,61.80
2023-02-03T21:24:02.593Z,55.10
2023-02-03T21:26:45.664Z,57.00
2023-02-03T21:29:29.572Z,58.90
2023-02-03T21:32:06.989Z,55.50
2023-02-03T21:34:46.980Z,52.50
2023-02-03T21:37:42.734Z,51.90
2023-02-03T21:40:35.000Z,49.80
2023-02-03T21:43:22.047Z,47.20
2023-02-03T21:45:59.027Z,43.60
2023-02-03T21:48:39.397Z,52.00
2023-02-03T21:51:25.028Z,44.60
2023-02-03T21:54:03.882Z,50.50
2023-02-03T21:56:46.415Z,48.50
2023-02-03T21:59:26.519Z,47.80
2023-02-03T22:02:03.766Z,47.30
2023-02-03T22:04:40.909Z,45.10
2023-02-03T22:07:29.271Z,54.90
2023-02-03T22:10:05.812Z,43.70
2023-02-03T22:12:43.224Z,46.20
2023-02-03T22:15:20.455Z,42.90
2023-02-03T22:17:58.044Z,38.90
2023-02-03T22:20:35.117Z,42.20
2023-02-03T22:23:12.625Z,41.60
2023-02-03T22:25:50.575Z,38.70
2023-02-03T22:28:26.953Z,37.80
2023-02-03T22:31:03.070Z,39.10
2023-02-03T22:33:40.486Z,35.50
2023-02-03T22:36:19.819Z,49.30
2023-02-03T22:38:57.164Z,44.90
2023-02-03T22:41:34.624Z,40.00
2023-02-03T22:44:16.364Z,38.00
2023-02-03T22:46:53.804Z,40.20
2023-02-03T22:49:31.407Z,33.30
2023-02-03T22:52:09.120Z,33.00
2023-02-03T22:54:46.533Z,32.90
2023-02-03T22:57:23.375Z,35.30
2023-02-03T23:00:00.425Z,36.00
2023-02-03T23:02:37.378Z,36.30
2023-02-03T23:05:15.984Z,39.40
2023-02-03T23:07:52.030Z,39.50
2023-02-03T23:10:33.804Z,37.80
2023-02-03T23:13:10.761Z,35.50
2023-02-03T23:15:47.690Z,30.90
2023-02-03T23:18:24.558Z,33.00
2023-02-03T23:21:01.956Z,30.20
2023-02-03T23:23:38.830Z,30.00
2023-02-03T23:26:15.652Z,28.60
2023-02-03T23:28:52.742Z,24.90
2023-02-03T23:31:28.249Z,27.40
2023-02-03T23:34:21.649Z,29.40
2023-02-03T23:37:01.670Z,27.10
2023-02-03T23:39:38.539Z,27.10
2023-02-03T23:42:14.845Z,26.30
2023-02-03T23:44:51.436Z,27.70
2023-02-03T23:47:27.952Z,27.60
2023-02-03T23:50:04.781Z,24.60
2023-02-03T23:52:41.973Z,25.90
2023-02-03T23:55:23.963Z,24.10
2023-02-03T23:58:01.538Z,24.00
